sensor_id;sensor_type;location;lat;lon;timestamp;P1;durP1;ratioP1;P2;durP2;ratioP2
44476;SDS011;30180;44.788;10.366;2024-03-29T00:01:19;6.78;;;2.20;;
44476;SDS011;30180;44.788;10.366;2024-03-29T00:03:46;4.82;;;1.90;;
44476;SDS011;30180;44.788;10.366;2024-03-29T00:06:13;5.45;;;1.92;;
44476;SDS011;30180;44.788;10.366;2024-03-29T00:08:39;5.97;;;2.03;;
44476;SDS011;30180;44.788;10.366;2024-03-29T00:11:07;7.05;;;2.33;;
44476;SDS011;30180;44.788;10.366;2024-03-29T00:13:34;6.63;;;2.00;;
44476;SDS011;30180;44.788;10.366;2024-03-29T00:16:00;5.03;;;2.00;;
44476;SDS011;30180;44.788;10.366;2024-03-29T00:18:27;6.85;;;1.90;;
44476;SDS011;30180;44.788;10.366;2024-03-29T00:20:54;5.53;;;2.20;;
44476;SDS011;30180;44.788;10.366;2024-03-29T00:23:21;6.40;;;1.63;;
44476;SDS011;30180;44.788;10.366;2024-03-29T00:25:47;6.53;;;2.10;;
44476;SDS011;30180;44.788;10.366;2024-03-29T00:28:15;4.53;;;1.77;;
44476;SDS011;30180;44.788;10.366;2024-03-29T00:30:41;6.05;;;2.05;;
44476;SDS011;30180;44.788;10.366;2024-03-29T00:33:07;7.75;;;2.63;;
44476;SDS011;30180;44.788;10.366;2024-03-29T00:35:34;5.40;;;1.90;;
44476;SDS011;30180;44.788;10.366;2024-03-29T00:38:00;6.53;;;2.08;;
44476;SDS011;30180;44.788;10.366;2024-03-29T00:40:27;4.75;;;2.50;;
44476;SDS011;30180;44.788;10.366;2024-03-29T00:42:53;7.13;;;2.33;;
44476;SDS011;30180;44.788;10.366;2024-03-29T00:45:21;8.95;;;2.97;;
44476;SDS011;30180;44.788;10.366;2024-03-29T00:47:47;4.38;;;1.92;;
44476;SDS011;30180;44.788;10.366;2024-03-29T00:50:14;3.72;;;1.75;;
44476;SDS011;30180;44.788;10.366;2024-03-29T00:52:40;5.47;;;2.08;;
44476;SDS011;30180;44.788;10.366;2024-03-29T00:55:07;4.10;;;2.00;;
44476;SDS011;30180;44.788;10.366;2024-03-29T00:57:33;6.07;;;2.30;;
44476;SDS011;30180;44.788;10.366;2024-03-29T01:00:00;7.82;;;2.15;;
44476;SDS011;30180;44.788;10.366;2024-03-29T01:02:28;4.68;;;1.55;;
44476;SDS011;30180;44.788;10.366;2024-03-29T01:04:54;4.05;;;1.83;;
44476;SDS011;30180;44.788;10.366;2024-03-29T01:07:20;5.72;;;1.95;;
44476;SDS011;30180;44.788;10.366;2024-03-29T01:09:47;4.05;;;1.50;;
44476;SDS011;30180;44.788;10.366;2024-03-29T01:12:13;5.28;;;1.90;;
44476;SDS011;30180;44.788;10.366;2024-03-29T01:14:40;3.00;;;1.60;;
44476;SDS011;30180;44.788;10.366;2024-03-29T01:17:06;6.28;;;2.00;;
44476;SDS011;30180;44.788;10.366;2024-03-29T01:19:34;4.78;;;2.08;;
44476;SDS011;30180;44.788;10.366;2024-03-29T01:22:00;5.25;;;2.25;;
44476;SDS011;30180;44.788;10.366;2024-03-29T01:24:26;5.78;;;2.00;;
44476;SDS011;30180;44.788;10.366;2024-03-29T01:26:53;6.85;;;2.00;;
44476;SDS011;30180;44.788;10.366;2024-03-29T01:29:19;7.15;;;2.25;;
44476;SDS011;30180;44.788;10.366;2024-03-29T01:31:46;4.57;;;1.83;;
44476;SDS011;30180;44.788;10.366;2024-03-29T01:34:12;3.45;;;1.73;;
44476;SDS011;30180;44.788;10.366;2024-03-29T01:36:40;6.18;;;1.75;;
44476;SDS011;30180;44.788;10.366;2024-03-29T01:39:06;5.78;;;1.90;;
44476;SDS011;30180;44.788;10.366;2024-03-29T01:41:32;5.93;;;2.03;;
44476;SDS011;30180;44.788;10.366;2024-03-29T01:43:59;3.75;;;1.75;;
44476;SDS011;30180;44.788;10.366;2024-03-29T01:46:26;5.30;;;2.38;;
44476;SDS011;30180;44.788;10.366;2024-03-29T01:48:53;8.07;;;1.67;;
44476;SDS011;30180;44.788;10.366;2024-03-29T01:51:22;4.63;;;2.03;;
44476;SDS011;30180;44.788;10.366;2024-03-29T01:53:52;3.92;;;1.65;;
44476;SDS011;30180;44.788;10.366;2024-03-29T01:56:22;4.43;;;1.85;;
44476;SDS011;30180;44.788;10.366;2024-03-29T01:58:50;4.65;;;1.88;;
44476;SDS011;30180;44.788;10.366;2024-03-29T02:01:19;4.25;;;2.05;;
44476;SDS011;30180;44.788;10.366;2024-03-29T02:03:47;3.85;;;1.92;;
44476;SDS011;30180;44.788;10.366;2024-03-29T02:06:14;4.25;;;2.05;;
44476;SDS011;30180;44.788;10.366;2024-03-29T02:08:42;7.50;;;2.35;;
44476;SDS011;30180;44.788;10.366;2024-03-29T02:11:11;5.32;;;1.80;;
44476;SDS011;30180;44.788;10.366;2024-03-29T02:13:38;4.35;;;1.67;;
44476;SDS011;30180;44.788;10.366;2024-03-29T02:16:06;4.25;;;1.60;;
44476;SDS011;30180;44.788;10.366;2024-03-29T02:18:33;4.13;;;1.50;;
44476;SDS011;30180;44.788;10.366;2024-03-29T02:21:01;3.10;;;2.00;;
44476;SDS011;30180;44.788;10.366;2024-03-29T02:23:29;4.10;;;1.92;;
44476;SDS011;30180;44.788;10.366;2024-03-29T02:26:00;5.28;;;1.83;;
44476;SDS011;30180;44.788;10.366;2024-03-29T02:28:30;4.72;;;1.90;;
44476;SDS011;30180;44.788;10.366;2024-03-29T02:30:57;3.40;;;1.65;;
44476;SDS011;30180;44.788;10.366;2024-03-29T02:33:24;8.10;;;1.95;;
44476;SDS011;30180;44.788;10.366;2024-03-29T02:35:52;7.15;;;2.15;;
44476;SDS011;30180;44.788;10.366;2024-03-29T02:38:19;5.43;;;1.90;;
44476;SDS011;30180;44.788;10.366;2024-03-29T02:40:47;4.18;;;1.80;;
44476;SDS011;30180;44.788;10.366;2024-03-29T02:43:16;4.88;;;1.92;;
44476;SDS011;30180;44.788;10.366;2024-03-29T02:45:43;5.07;;;2.13;;
44476;SDS011;30180;44.788;10.366;2024-03-29T02:48:10;8.07;;;1.80;;
44476;SDS011;30180;44.788;10.366;2024-03-29T02:50:37;10.77;;;2.40;;
44476;SDS011;30180;44.788;10.366;2024-03-29T02:53:04;5.47;;;2.13;;
44476;SDS011;30180;44.788;10.366;2024-03-29T02:55:30;9.15;;;2.05;;
44476;SDS011;30180;44.788;10.366;2024-03-29T02:57:58;10.10;;;2.45;;
44476;SDS011;30180;44.788;10.366;2024-03-29T03:00:26;9.18;;;1.92;;
44476;SDS011;30180;44.788;10.366;2024-03-29T03:02:53;4.90;;;1.90;;
44476;SDS011;30180;44.788;10.366;2024-03-29T03:05:19;10.52;;;2.55;;
44476;SDS011;30180;44.788;10.366;2024-03-29T03:07:47;7.65;;;2.60;;
44476;SDS011;30180;44.788;10.366;2024-03-29T03:10:31;8.98;;;2.75;;
44476;SDS011;30180;44.788;10.366;2024-03-29T03:13:16;5.75;;;1.88;;
44476;SDS011;30180;44.788;10.366;2024-03-29T03:15:45;8.05;;;2.10;;
44476;SDS011;30180;44.788;10.366;2024-03-29T03:18:12;4.90;;;2.05;;
44476;SDS011;30180;44.788;10.366;2024-03-29T03:20:39;6.80;;;2.15;;
44476;SDS011;30180;44.788;10.366;2024-03-29T03:23:06;7.50;;;2.35;;
44476;SDS011;30180;44.788;10.366;2024-03-29T03:25:34;5.18;;;2.20;;
44476;SDS011;30180;44.788;10.366;2024-03-29T03:28:00;7.47;;;2.33;;
44476;SDS011;30180;44.788;10.366;2024-03-29T03:30:28;7.07;;;2.00;;
44476;SDS011;30180;44.788;10.366;2024-03-29T03:32:56;7.70;;;1.77;;
44476;SDS011;30180;44.788;10.366;2024-03-29T03:35:23;9.32;;;2.42;;
44476;SDS011;30180;44.788;10.366;2024-03-29T03:37:49;7.05;;;2.40;;
44476;SDS011;30180;44.788;10.366;2024-03-29T03:40:17;6.78;;;1.98;;
44476;SDS011;30180;44.788;10.366;2024-03-29T03:42:43;5.55;;;2.05;;
44476;SDS011;30180;44.788;10.366;2024-03-29T03:45:10;6.30;;;2.22;;
44476;SDS011;30180;44.788;10.366;2024-03-29T03:47:37;6.00;;;2.08;;
44476;SDS011;30180;44.788;10.366;2024-03-29T03:50:06;6.78;;;2.10;;
44476;SDS011;30180;44.788;10.366;2024-03-29T03:52:32;7.60;;;2.17;;
44476;SDS011;30180;44.788;10.366;2024-03-29T03:55:00;5.15;;;2.33;;
44476;SDS011;30180;44.788;10.366;2024-03-29T03:57:26;4.40;;;2.00;;
44476;SDS011;30180;44.788;10.366;2024-03-29T03:59:53;4.78;;;2.28;;
44476;SDS011;30180;44.788;10.366;2024-03-29T04:02:20;8.50;;;2.47;;
44476;SDS011;30180;44.788;10.366;2024-03-29T04:04:47;9.35;;;2.65;;
44476;SDS011;30180;44.788;10.366;2024-03-29T04:07:15;5.28;;;2.10;;
44476;SDS011;30180;44.788;10.366;2024-03-29T04:09:42;4.50;;;1.80;;
44476;SDS011;30180;44.788;10.366;2024-03-29T04:12:09;3.97;;;1.83;;
44476;SDS011;30180;44.788;10.366;2024-03-29T04:14:36;4.32;;;2.00;;
44476;SDS011;30180;44.788;10.366;2024-03-29T04:17:03;6.95;;;2.10;;
44476;SDS011;30180;44.788;10.366;2024-03-29T04:19:30;6.55;;;1.80;;
44476;SDS011;30180;44.788;10.366;2024-03-29T04:21:57;6.30;;;1.85;;
44476;SDS011;30180;44.788;10.366;2024-03-29T04:24:25;5.95;;;1.90;;
44476;SDS011;30180;44.788;10.366;2024-03-29T04:26:53;7.43;;;1.80;;
44476;SDS011;30180;44.788;10.366;2024-03-29T04:29:21;5.10;;;1.90;;
44476;SDS011;30180;44.788;10.366;2024-03-29T04:31:47;4.80;;;2.03;;
44476;SDS011;30180;44.788;10.366;2024-03-29T04:34:15;10.13;;;2.20;;
44476;SDS011;30180;44.788;10.366;2024-03-29T04:36:41;6.00;;;1.83;;
44476;SDS011;30180;44.788;10.366;2024-03-29T04:39:08;4.20;;;1.88;;
44476;SDS011;30180;44.788;10.366;2024-03-29T04:41:37;4.65;;;2.20;;
44476;SDS011;30180;44.788;10.366;2024-03-29T04:44:04;9.07;;;2.15;;
44476;SDS011;30180;44.788;10.366;2024-03-29T04:46:33;6.22;;;1.73;;
44476;SDS011;30180;44.788;10.366;2024-03-29T04:49:00;3.80;;;2.03;;
44476;SDS011;30180;44.788;10.366;2024-03-29T04:51:28;6.95;;;1.80;;
44476;SDS011;30180;44.788;10.366;2024-03-29T04:53:55;7.57;;;1.77;;
44476;SDS011;30180;44.788;10.366;2024-03-29T04:56:22;6.80;;;2.25;;
44476;SDS011;30180;44.788;10.366;2024-03-29T04:58:51;7.82;;;2.10;;
44476;SDS011;30180;44.788;10.366;2024-03-29T05:01:18;4.65;;;1.80;;
44476;SDS011;30180;44.788;10.366;2024-03-29T05:03:46;5.30;;;1.80;;
44476;SDS011;30180;44.788;10.366;2024-03-29T05:06:13;6.28;;;2.40;;
44476;SDS011;30180;44.788;10.366;2024-03-29T05:08:41;5.40;;;2.10;;
44476;SDS011;30180;44.788;10.366;2024-03-29T05:11:08;9.18;;;2.20;;
44476;SDS011;30180;44.788;10.366;2024-03-29T05:13:39;4.88;;;1.88;;
44476;SDS011;30180;44.788;10.366;2024-03-29T05:16:08;5.32;;;1.85;;
44476;SDS011;30180;44.788;10.366;2024-03-29T05:18:35;4.13;;;2.03;;
44476;SDS011;30180;44.788;10.366;2024-03-29T05:21:03;7.47;;;2.05;;
44476;SDS011;30180;44.788;10.366;2024-03-29T05:23:30;4.50;;;1.75;;
44476;SDS011;30180;44.788;10.366;2024-03-29T05:25:57;9.73;;;2.35;;
44476;SDS011;30180;44.788;10.366;2024-03-29T05:28:24;5.72;;;1.95;;
44476;SDS011;30180;44.788;10.366;2024-03-29T05:30:52;8.23;;;2.17;;
44476;SDS011;30180;44.788;10.366;2024-03-29T05:33:21;5.70;;;2.15;;
44476;SDS011;30180;44.788;10.366;2024-03-29T05:35:48;5.60;;;2.17;;
44476;SDS011;30180;44.788;10.366;2024-03-29T05:38:15;6.25;;;2.20;;
44476;SDS011;30180;44.788;10.366;2024-03-29T05:40:43;4.38;;;1.85;;
44476;SDS011;30180;44.788;10.366;2024-03-29T05:43:12;7.82;;;2.13;;
44476;SDS011;30180;44.788;10.366;2024-03-29T05:45:39;5.05;;;2.28;;
44476;SDS011;30180;44.788;10.366;2024-03-29T05:48:07;10.02;;;2.67;;
44476;SDS011;30180;44.788;10.366;2024-03-29T05:50:35;6.80;;;2.08;;
44476;SDS011;30180;44.788;10.366;2024-03-29T05:53:03;10.00;;;2.35;;
44476;SDS011;30180;44.788;10.366;2024-03-29T05:55:30;7.28;;;2.60;;
44476;SDS011;30180;44.788;10.366;2024-03-29T05:57:58;8.52;;;2.40;;
44476;SDS011;30180;44.788;10.366;2024-03-29T06:00:25;8.02;;;2.30;;
44476;SDS011;30180;44.788;10.366;2024-03-29T06:02:52;7.47;;;2.05;;
44476;SDS011;30180;44.788;10.366;2024-03-29T06:05:20;5.72;;;2.55;;
44476;SDS011;30180;44.788;10.366;2024-03-29T06:07:49;9.98;;;2.45;;
44476;SDS011;30180;44.788;10.366;2024-03-29T06:10:16;7.15;;;2.20;;
44476;SDS011;30180;44.788;10.366;2024-03-29T06:12:43;7.25;;;2.63;;
44476;SDS011;30180;44.788;10.366;2024-03-29T06:15:11;9.63;;;2.58;;
44476;SDS011;30180;44.788;10.366;2024-03-29T06:20:19;7.78;;;2.25;;
44476;SDS011;30180;44.788;10.366;2024-03-29T06:22:47;7.93;;;1.88;;
44476;SDS011;30180;44.788;10.366;2024-03-29T06:25:16;7.78;;;1.98;;
44476;SDS011;30180;44.788;10.366;2024-03-29T06:27:43;6.90;;;2.30;;
44476;SDS011;30180;44.788;10.366;2024-03-29T06:30:13;8.85;;;2.33;;
44476;SDS011;30180;44.788;10.366;2024-03-29T06:32:42;6.63;;;2.35;;
44476;SDS011;30180;44.788;10.366;2024-03-29T06:35:10;9.18;;;2.70;;
44476;SDS011;30180;44.788;10.366;2024-03-29T06:37:38;4.78;;;2.03;;
44476;SDS011;30180;44.788;10.366;2024-03-29T06:40:07;7.00;;;2.63;;
44476;SDS011;30180;44.788;10.366;2024-03-29T06:42:35;7.57;;;2.50;;
44476;SDS011;30180;44.788;10.366;2024-03-29T06:45:03;7.95;;;2.30;;
44476;SDS011;30180;44.788;10.366;2024-03-29T06:47:32;6.93;;;2.10;;
44476;SDS011;30180;44.788;10.366;2024-03-29T06:50:01;7.90;;;2.97;;
44476;SDS011;30180;44.788;10.366;2024-03-29T06:52:29;11.18;;;4.88;;
44476;SDS011;30180;44.788;10.366;2024-03-29T06:54:56;7.72;;;4.05;;
44476;SDS011;30180;44.788;10.366;2024-03-29T06:57:25;10.38;;;4.28;;
44476;SDS011;30180;44.788;10.366;2024-03-29T07:03:27;11.90;;;3.92;;
44476;SDS011;30180;44.788;10.366;2024-03-29T07:05:55;9.02;;;4.22;;
44476;SDS011;30180;44.788;10.366;2024-03-29T07:08:23;12.45;;;4.22;;
44476;SDS011;30180;44.788;10.366;2024-03-29T07:10:56;10.48;;;3.70;;
44476;SDS011;30180;44.788;10.366;2024-03-29T07:13:28;6.88;;;3.40;;
44476;SDS011;30180;44.788;10.366;2024-03-29T07:15:56;5.97;;;2.90;;
44476;SDS011;30180;44.788;10.366;2024-03-29T07:18:24;8.98;;;3.70;;
44476;SDS011;30180;44.788;10.366;2024-03-29T07:20:51;6.07;;;3.35;;
44476;SDS011;30180;44.788;10.366;2024-03-29T07:23:19;6.38;;;3.25;;
44476;SDS011;30180;44.788;10.366;2024-03-29T07:25:57;8.13;;;3.00;;
44476;SDS011;30180;44.788;10.366;2024-03-29T07:28:27;7.10;;;2.67;;
44476;SDS011;30180;44.788;10.366;2024-03-29T07:30:55;7.00;;;3.38;;
44476;SDS011;30180;44.788;10.366;2024-03-29T07:33:24;6.72;;;3.58;;
44476;SDS011;30180;44.788;10.366;2024-03-29T07:35:53;6.45;;;2.53;;
44476;SDS011;30180;44.788;10.366;2024-03-29T07:38:20;8.52;;;2.90;;
44476;SDS011;30180;44.788;10.366;2024-03-29T07:40:48;10.32;;;2.50;;
44476;SDS011;30180;44.788;10.366;2024-03-29T07:43:18;13.38;;;3.40;;
44476;SDS011;30180;44.788;10.366;2024-03-29T07:45:47;7.90;;;2.97;;
44476;SDS011;30180;44.788;10.366;2024-03-29T07:48:14;8.35;;;3.10;;
44476;SDS011;30180;44.788;10.366;2024-03-29T07:50:43;8.60;;;2.70;;
44476;SDS011;30180;44.788;10.366;2024-03-29T07:53:12;9.60;;;3.05;;
44476;SDS011;30180;44.788;10.366;2024-03-29T07:55:40;21.48;;;3.53;;
44476;SDS011;30180;44.788;10.366;2024-03-29T07:58:07;14.43;;;3.40;;
44476;SDS011;30180;44.788;10.366;2024-03-29T08:00:38;19.92;;;4.90;;
44476;SDS011;30180;44.788;10.366;2024-03-29T08:03:08;8.25;;;4.07;;
44476;SDS011;30180;44.788;10.366;2024-03-29T08:05:35;12.75;;;4.93;;
44476;SDS011;30180;44.788;10.366;2024-03-29T08:08:03;16.42;;;4.85;;
44476;SDS011;30180;44.788;10.366;2024-03-29T08:10:31;9.40;;;4.35;;
44476;SDS011;30180;44.788;10.366;2024-03-29T08:12:58;12.98;;;4.50;;
44476;SDS011;30180;44.788;10.366;2024-03-29T08:15:26;10.70;;;4.88;;
44476;SDS011;30180;44.788;10.366;2024-03-29T08:17:54;12.35;;;4.75;;
44476;SDS011;30180;44.788;10.366;2024-03-29T08:20:22;13.60;;;4.72;;
44476;SDS011;30180;44.788;10.366;2024-03-29T08:22:55;10.48;;;4.57;;
44476;SDS011;30180;44.788;10.366;2024-03-29T08:25:23;14.90;;;4.90;;
44476;SDS011;30180;44.788;10.366;2024-03-29T08:27:52;10.95;;;4.40;;
44476;SDS011;30180;44.788;10.366;2024-03-29T08:32:51;8.75;;;4.90;;
44476;SDS011;30180;44.788;10.366;2024-03-29T08:35:19;10.50;;;4.45;;
44476;SDS011;30180;44.788;10.366;2024-03-29T08:37:48;14.65;;;5.40;;
44476;SDS011;30180;44.788;10.366;2024-03-29T08:40:17;16.90;;;6.50;;
44476;SDS011;30180;44.788;10.366;2024-03-29T08:42:44;15.50;;;7.53;;
44476;SDS011;30180;44.788;10.366;2024-03-29T08:45:12;15.57;;;6.97;;
44476;SDS011;30180;44.788;10.366;2024-03-29T08:47:40;16.02;;;7.68;;
44476;SDS011;30180;44.788;10.366;2024-03-29T08:50:08;19.73;;;6.55;;
44476;SDS011;30180;44.788;10.366;2024-03-29T08:52:36;14.55;;;6.38;;
44476;SDS011;30180;44.788;10.366;2024-03-29T08:55:07;12.43;;;5.78;;
44476;SDS011;30180;44.788;10.366;2024-03-29T08:57:35;18.45;;;7.93;;
44476;SDS011;30180;44.788;10.366;2024-03-29T09:00:03;13.80;;;6.75;;
44476;SDS011;30180;44.788;10.366;2024-03-29T09:02:32;13.40;;;6.20;;
44476;SDS011;30180;44.788;10.366;2024-03-29T09:04:59;15.20;;;6.25;;
44476;SDS011;30180;44.788;10.366;2024-03-29T09:07:27;13.90;;;5.57;;
44476;SDS011;30180;44.788;10.366;2024-03-29T09:09:55;12.98;;;4.90;;
44476;SDS011;30180;44.788;10.366;2024-03-29T09:12:24;17.88;;;5.97;;
44476;SDS011;30180;44.788;10.366;2024-03-29T09:14:51;10.70;;;5.13;;
44476;SDS011;30180;44.788;10.366;2024-03-29T09:17:19;13.20;;;6.57;;
44476;SDS011;30180;44.788;10.366;2024-03-29T09:19:49;15.60;;;6.57;;
44476;SDS011;30180;44.788;10.366;2024-03-29T09:22:17;24.23;;;7.72;;
44476;SDS011;30180;44.788;10.366;2024-03-29T09:24:44;15.07;;;7.05;;
44476;SDS011;30180;44.788;10.366;2024-03-29T09:27:12;20.88;;;6.75;;
44476;SDS011;30180;44.788;10.366;2024-03-29T09:29:41;15.23;;;5.75;;
44476;SDS011;30180;44.788;10.366;2024-03-29T09:32:08;17.73;;;5.88;;
44476;SDS011;30180;44.788;10.366;2024-03-29T09:34:36;14.90;;;5.68;;
44476;SDS011;30180;44.788;10.366;2024-03-29T09:37:03;11.05;;;5.20;;
44476;SDS011;30180;44.788;10.366;2024-03-29T09:39:31;10.85;;;5.30;;
44476;SDS011;30180;44.788;10.366;2024-03-29T09:41:58;13.20;;;4.88;;
44476;SDS011;30180;44.788;10.366;2024-03-29T09:44:30;12.13;;;4.47;;
44476;SDS011;30180;44.788;10.366;2024-03-29T09:47:01;13.48;;;4.47;;
44476;SDS011;30180;44.788;10.366;2024-03-29T09:49:30;10.98;;;4.38;;
44476;SDS011;30180;44.788;10.366;2024-03-29T09:51:58;17.05;;;4.82;;
44476;SDS011;30180;44.788;10.366;2024-03-29T09:54:26;8.85;;;4.63;;
44476;SDS011;30180;44.788;10.366;2024-03-29T09:56:55;11.05;;;5.03;;
44476;SDS011;30180;44.788;10.366;2024-03-29T09:59:23;10.65;;;4.55;;
44476;SDS011;30180;44.788;10.366;2024-03-29T10:01:53;11.80;;;4.50;;
44476;SDS011;30180;44.788;10.366;2024-03-29T10:04:23;7.95;;;3.90;;
44476;SDS011;30180;44.788;10.366;2024-03-29T10:06:51;8.43;;;3.95;;
44476;SDS011;30180;44.788;10.366;2024-03-29T10:09:19;11.63;;;4.03;;
44476;SDS011;30180;44.788;10.366;2024-03-29T10:11:47;8.73;;;3.88;;
44476;SDS011;30180;44.788;10.366;2024-03-29T10:14:15;11.48;;;5.40;;
44476;SDS011;30180;44.788;10.366;2024-03-29T10:16:42;12.55;;;5.43;;
44476;SDS011;30180;44.788;10.366;2024-03-29T10:19:11;11.48;;;5.32;;
44476;SDS011;30180;44.788;10.366;2024-03-29T10:21:40;9.52;;;4.28;;
44476;SDS011;30180;44.788;10.366;2024-03-29T10:24:11;14.23;;;4.78;;
44476;SDS011;30180;44.788;10.366;2024-03-29T10:26:40;9.68;;;4.85;;
44476;SDS011;30180;44.788;10.366;2024-03-29T10:29:08;12.52;;;4.90;;
44476;SDS011;30180;44.788;10.366;2024-03-29T10:31:36;8.27;;;4.63;;
44476;SDS011;30180;44.788;10.366;2024-03-29T10:34:04;10.00;;;4.40;;
44476;SDS011;30180;44.788;10.366;2024-03-29T10:36:31;8.60;;;4.30;;
44476;SDS011;30180;44.788;10.366;2024-03-29T10:39:03;16.92;;;4.22;;
44476;SDS011;30180;44.788;10.366;2024-03-29T10:41:38;9.02;;;3.88;;
44476;SDS011;30180;44.788;10.366;2024-03-29T10:44:07;12.02;;;4.47;;
44476;SDS011;30180;44.788;10.366;2024-03-29T10:46:37;10.25;;;4.40;;
44476;SDS011;30180;44.788;10.366;2024-03-29T10:49:06;12.45;;;4.35;;
44476;SDS011;30180;44.788;10.366;2024-03-29T10:51:35;9.48;;;4.05;;
44476;SDS011;30180;44.788;10.366;2024-03-29T10:54:07;18.60;;;4.80;;
44476;SDS011;30180;44.788;10.366;2024-03-29T10:56:36;12.18;;;4.00;;
44476;SDS011;30180;44.788;10.366;2024-03-29T10:59:05;9.07;;;4.20;;
44476;SDS011;30180;44.788;10.366;2024-03-29T11:01:38;11.93;;;5.18;;
44476;SDS011;30180;44.788;10.366;2024-03-29T11:04:09;13.05;;;6.40;;
44476;SDS011;30180;44.788;10.366;2024-03-29T11:06:43;15.77;;;10.68;;
44476;SDS011;30180;44.788;10.366;2024-03-29T11:11:44;20.38;;;13.40;;
44476;SDS011;30180;44.788;10.366;2024-03-29T11:14:18;23.90;;;10.00;;
44476;SDS011;30180;44.788;10.366;2024-03-29T11:16:50;16.88;;;9.85;;
44476;SDS011;30180;44.788;10.366;2024-03-29T11:19:22;22.85;;;9.65;;
44476;SDS011;30180;44.788;10.366;2024-03-29T11:21:50;18.45;;;9.30;;
44476;SDS011;30180;44.788;10.366;2024-03-29T11:24:20;19.85;;;9.18;;
44476;SDS011;30180;44.788;10.366;2024-03-29T11:29:19;22.20;;;8.30;;
44476;SDS011;30180;44.788;10.366;2024-03-29T11:31:46;18.10;;;7.63;;
44476;SDS011;30180;44.788;10.366;2024-03-29T11:34:18;27.30;;;9.47;;
44476;SDS011;30180;44.788;10.366;2024-03-29T11:36:46;16.02;;;7.82;;
44476;SDS011;30180;44.788;10.366;2024-03-29T11:39:21;15.30;;;7.85;;
44476;SDS011;30180;44.788;10.366;2024-03-29T11:41:50;18.02;;;6.93;;
44476;SDS011;30180;44.788;10.366;2024-03-29T11:44:19;16.85;;;7.43;;
44476;SDS011;30180;44.788;10.366;2024-03-29T11:46:46;16.45;;;6.57;;
44476;SDS011;30180;44.788;10.366;2024-03-29T11:49:16;16.38;;;6.57;;
44476;SDS011;30180;44.788;10.366;2024-03-29T11:51:43;13.27;;;6.68;;
44476;SDS011;30180;44.788;10.366;2024-03-29T11:54:13;16.88;;;6.45;;
44476;SDS011;30180;44.788;10.366;2024-03-29T11:56:43;17.27;;;6.60;;
44476;SDS011;30180;44.788;10.366;2024-03-29T11:59:10;13.20;;;5.60;;
44476;SDS011;30180;44.788;10.366;2024-03-29T12:01:39;10.48;;;4.97;;
44476;SDS011;30180;44.788;10.366;2024-03-29T12:04:06;13.27;;;5.50;;
44476;SDS011;30180;44.788;10.366;2024-03-29T12:06:34;11.32;;;5.75;;
44476;SDS011;30180;44.788;10.366;2024-03-29T12:09:02;15.98;;;5.35;;
44476;SDS011;30180;44.788;10.366;2024-03-29T12:11:31;9.18;;;5.20;;
44476;SDS011;30180;44.788;10.366;2024-03-29T12:14:00;10.40;;;5.68;;
44476;SDS011;30180;44.788;10.366;2024-03-29T12:16:29;13.45;;;4.80;;
44476;SDS011;30180;44.788;10.366;2024-03-29T12:18:57;10.60;;;4.57;;
44476;SDS011;30180;44.788;10.366;2024-03-29T12:21:24;10.98;;;5.07;;
44476;SDS011;30180;44.788;10.366;2024-03-29T12:23:52;9.48;;;4.68;;
44476;SDS011;30180;44.788;10.366;2024-03-29T12:26:19;9.60;;;4.53;;
44476;SDS011;30180;44.788;10.366;2024-03-29T12:28:48;13.00;;;4.85;;
44476;SDS011;30180;44.788;10.366;2024-03-29T12:31:18;10.35;;;4.75;;
44476;SDS011;30180;44.788;10.366;2024-03-29T12:33:51;9.48;;;5.20;;
44476;SDS011;30180;44.788;10.366;2024-03-29T12:36:22;11.50;;;4.88;;
44476;SDS011;30180;44.788;10.366;2024-03-29T12:38:53;7.35;;;4.60;;
44476;SDS011;30180;44.788;10.366;2024-03-29T12:41:23;9.27;;;4.55;;
44476;SDS011;30180;44.788;10.366;2024-03-29T12:43:52;13.23;;;4.43;;
44476;SDS011;30180;44.788;10.366;2024-03-29T12:46:22;10.93;;;4.40;;
44476;SDS011;30180;44.788;10.366;2024-03-29T12:48:56;7.25;;;4.55;;
44476;SDS011;30180;44.788;10.366;2024-03-29T12:51:24;11.10;;;5.07;;
44476;SDS011;30180;44.788;10.366;2024-03-29T12:53:53;9.10;;;4.45;;
44476;SDS011;30180;44.788;10.366;2024-03-29T12:56:21;10.02;;;4.55;;
44476;SDS011;30180;44.788;10.366;2024-03-29T12:58:48;9.13;;;4.10;;
44476;SDS011;30180;44.788;10.366;2024-03-29T13:01:16;9.40;;;4.22;;
44476;SDS011;30180;44.788;10.366;2024-03-29T13:03:45;11.70;;;4.70;;
44476;SDS011;30180;44.788;10.366;2024-03-29T13:06:12;11.60;;;4.60;;
44476;SDS011;30180;44.788;10.366;2024-03-29T13:08:40;7.20;;;4.20;;
44476;SDS011;30180;44.788;10.366;2024-03-29T13:11:07;8.55;;;4.30;;
44476;SDS011;30180;44.788;10.366;2024-03-29T13:13:36;8.57;;;4.18;;
44476;SDS011;30180;44.788;10.366;2024-03-29T13:16:04;8.23;;;3.97;;
44476;SDS011;30180;44.788;10.366;2024-03-29T13:18:31;9.25;;;3.88;;
44476;SDS011;30180;44.788;10.366;2024-03-29T13:21:01;8.32;;;4.28;;
44476;SDS011;30180;44.788;10.366;2024-03-29T13:23:28;9.10;;;4.22;;
44476;SDS011;30180;44.788;10.366;2024-03-29T13:25:57;8.68;;;4.28;;
44476;SDS011;30180;44.788;10.366;2024-03-29T13:28:25;8.90;;;4.32;;
44476;SDS011;30180;44.788;10.366;2024-03-29T13:30:53;8.18;;;4.50;;
44476;SDS011;30180;44.788;10.366;2024-03-29T13:33:22;17.33;;;4.53;;
44476;SDS011;30180;44.788;10.366;2024-03-29T13:35:52;10.13;;;4.20;;
44476;SDS011;30180;44.788;10.366;2024-03-29T13:38:24;9.88;;;4.70;;
44476;SDS011;30180;44.788;10.366;2024-03-29T13:40:52;8.18;;;4.03;;
44476;SDS011;30180;44.788;10.366;2024-03-29T13:43:20;7.50;;;3.80;;
44476;SDS011;30180;44.788;10.366;2024-03-29T13:45:48;7.53;;;4.38;;
44476;SDS011;30180;44.788;10.366;2024-03-29T13:48:16;6.75;;;3.85;;
44476;SDS011;30180;44.788;10.366;2024-03-29T13:50:43;6.20;;;3.83;;
44476;SDS011;30180;44.788;10.366;2024-03-29T13:53:11;7.03;;;3.78;;
44476;SDS011;30180;44.788;10.366;2024-03-29T13:55:40;7.20;;;4.03;;
44476;SDS011;30180;44.788;10.366;2024-03-29T13:58:07;11.32;;;3.95;;
44476;SDS011;30180;44.788;10.366;2024-03-29T14:00:35;12.32;;;3.97;;
44476;SDS011;30180;44.788;10.366;2024-03-29T14:03:02;9.32;;;4.30;;
44476;SDS011;30180;44.788;10.366;2024-03-29T14:05:30;10.27;;;4.32;;
44476;SDS011;30180;44.788;10.366;2024-03-29T14:07:57;6.85;;;4.30;;
44476;SDS011;30180;44.788;10.366;2024-03-29T14:10:26;7.97;;;4.13;;
44476;SDS011;30180;44.788;10.366;2024-03-29T14:12:55;9.55;;;4.60;;
44476;SDS011;30180;44.788;10.366;2024-03-29T14:15:22;9.57;;;4.60;;
44476;SDS011;30180;44.788;10.366;2024-03-29T14:17:50;8.38;;;4.50;;
44476;SDS011;30180;44.788;10.366;2024-03-29T14:20:17;7.63;;;4.10;;
44476;SDS011;30180;44.788;10.366;2024-03-29T14:22:46;10.43;;;4.50;;
44476;SDS011;30180;44.788;10.366;2024-03-29T14:25:17;11.70;;;4.68;;
44476;SDS011;30180;44.788;10.366;2024-03-29T14:27:45;17.25;;;6.43;;
44476;SDS011;30180;44.788;10.366;2024-03-29T14:30:21;16.05;;;8.25;;
44476;SDS011;30180;44.788;10.366;2024-03-29T14:32:50;16.08;;;7.75;;
44476;SDS011;30180;44.788;10.366;2024-03-29T14:35:18;19.58;;;7.82;;
44476;SDS011;30180;44.788;10.366;2024-03-29T14:37:46;20.25;;;8.68;;
44476;SDS011;30180;44.788;10.366;2024-03-29T14:40:14;18.50;;;8.35;;
44476;SDS011;30180;44.788;10.366;2024-03-29T14:42:41;17.83;;;8.93;;
44476;SDS011;30180;44.788;10.366;2024-03-29T14:45:09;19.30;;;8.68;;
44476;SDS011;30180;44.788;10.366;2024-03-29T14:47:39;17.50;;;7.80;;
44476;SDS011;30180;44.788;10.366;2024-03-29T14:50:07;18.52;;;8.75;;